Time;durP1;ratioP1;P1;durP2;ratioP2;P2;SDS_P1;SDS_P2;PMS_P1;PMS_P2;Temp;Humidity;BMP_temperature;BMP_pressure;BME280_temperature;BME280_humidity;BME280_pressure;Samples;Min_cycle;Max_cycle;Signal;HPM_P1;HPM_P2
2022/03/14 00:02:23;;;;;;;12.07;5.85;;;;;;;-146.84;100.00;65060.63;5016524;28;20117;-80
2022/03/14 00:04:49;;;;;;;11.82;6.00;;;;;;;-146.84;100.00;65060.63;5017156;28;20061;-78
2022/03/14 00:07:15;;;;;;;12.50;5.85;;;;;;;-146.84;100.00;65060.63;5001717;28;20146;-75
2022/03/14 00:09:40;;;;;;;12.80;5.65;;;;;;;-146.84;100.00;65060.63;5002112;28;20580;-75
2022/03/14 00:12:08;;;;;;;10.63;5.72;;;;;;;-146.84;100.00;65060.63;5020038;28;20065;-76
2022/03/14 00:14:34;;;;;;;9.27;5.68;;;;;;;-146.84;100.00;65060.63;4999886;28;20034;-78
2022/03/14 00:17:10;;;;;;;15.55;5.68;;;;;;;-146.84;100.00;65060.63;5017618;28;20044;-77
2022/03/14 00:19:38;;;;;;;11.45;5.50;;;;;;;-146.84;100.00;65060.63;5016230;28;20050;-78
2022/03/14 00:22:07;;;;;;;11.93;5.95;;;;;;;-146.84;100.00;65060.63;5018272;28;20030;-76
2022/03/14 00:24:32;;;;;;;12.98;6.55;;;;;;;-146.84;100.00;65060.63;5018945;28;20530;-76
2022/03/14 00:26:58;;;;;;;10.20;5.18;;;;;;;-146.84;100.00;65060.63;5017733;28;20056;-79
2022/03/14 00:29:24;;;;;;;12.35;5.60;;;;;;;-146.84;100.00;65060.63;5002895;28;20041;-80
2022/03/14 00:31:49;;;;;;;12.20;6.15;;;;;;;-146.84;100.00;65060.63;5003453;28;20046;-79
2022/03/14 00:34:15;;;;;;;13.93;6.68;;;;;;;-146.84;100.00;65060.63;5006532;28;20064;-77
2022/03/14 00:36:42;;;;;;;13.20;6.35;;;;;;;-146.84;100.00;65060.63;5007029;28;20034;-79
2022/03/14 00:39:09;;;;;;;11.85;6.03;;;;;;;-146.84;100.00;65060.63;5005762;28;20052;-79
2022/03/14 00:41:34;;;;;;;12.52;5.90;;;;;;;-146.84;100.00;65060.63;5003359;28;20046;-79
2022/03/14 00:44:00;;;;;;;12.63;6.30;;;;;;;-146.84;100.00;65060.63;5011483;28;20496;-78
2022/03/14 00:46:26;;;;;;;11.85;6.13;;;;;;;-146.84;100.00;65060.63;5006634;28;20396;-79
2022/03/14 00:48:51;;;;;;;13.68;6.32;;;;;;;-146.84;100.00;65060.63;5005368;28;20039;-76
2022/03/14 00:51:17;;;;;;;14.40;6.03;;;;;;;-146.84;100.00;65060.63;5033373;28;20034;-79
2022/03/14 00:53:42;;;;;;;11.68;5.88;;;;;;;-146.84;100.00;65060.63;5006651;28;20071;-77
2022/03/14 00:56:09;;;;;;;13.05;6.60;;;;;;;-146.84;100.00;65060.63;5003565;28;20026;-77
2022/03/14 00:58:35;;;;;;;11.45;6.07;;;;;;;-146.84;100.00;65060.63;5028478;28;20332;-78
2022/03/14 01:01:02;;;;;;;15.48;6.40;;;;;;;-146.84;100.00;65060.63;5001686;28;20042;-80
2022/03/14 01:03:28;;;;;;;14.68;6.28;;;;;;;-146.84;100.00;65060.63;5019433;28;20493;-76
2022/03/14 01:05:54;;;;;;;14.02;6.60;;;;;;;-146.84;100.00;65060.63;5022007;28;20033;-76
2022/03/14 01:08:19;;;;;;;13.35;6.05;;;;;;;-146.84;100.00;65060.63;5024155;28;20434;-79
2022/03/14 01:10:47;;;;;;;12.68;6.22;;;;;;;-146.84;100.00;65060.63;5022944;28;20049;-76
2022/03/14 01:13:14;;;;;;;13.73;6.35;;;;;;;-146.84;100.00;65060.63;4989680;28;20448;-78
2022/03/14 01:15:40;;;;;;;11.25;6.72;;;;;;;-146.84;100.00;65060.63;5002111;28;20113;-77
2022/03/14 01:18:05;;;;;;;13.23;7.22;;;;;;;-146.84;100.00;65060.63;5024384;28;20069;-76
2022/03/14 01:20:33;;;;;;;12.77;6.00;;;;;;;-146.84;100.00;65060.63;5006460;28;20052;-77
2022/03/14 01:22:59;;;;;;;13.95;6.43;;;;;;;-146.84;100.00;65060.63;5020891;28;20034;-79
2022/03/14 01:25:25;;;;;;;13.13;5.70;;;;;;;-146.84;100.00;65060.63;5006244;28;20032;-75
2022/03/14 01:27:51;;;;;;;14.52;6.20;;;;;;;-146.84;100.00;65060.63;5033627;28;20037;-78
2022/03/14 01:30:18;;;;;;;12.38;6.13;;;;;;;-146.84;100.00;65060.63;5018164;28;20037;-79
2022/03/14 01:32:44;;;;;;;13.90;5.82;;;;;;;-146.84;100.00;65060.63;5001186;28;20102;-75
2022/03/14 01:35:09;;;;;;;16.77;6.07;;;;;;;-146.84;100.00;65060.63;5038112;28;20524;-77
2022/03/14 01:37:35;;;;;;;11.25;5.75;;;;;;;-146.84;100.00;65060.63;5006865;28;20049;-75
2022/03/14 01:40:00;;;;;;;15.18;6.30;;;;;;;-146.84;100.00;65060.63;5021135;28;20046;-78
2022/03/14 01:42:26;;;;;;;11.35;5.85;;;;;;;-146.84;100.00;65060.63;5015639;28;20037;-77
2022/03/14 01:44:52;;;;;;;13.07;6.90;;;;;;;-146.84;100.00;65060.63;5020170;28;20057;-79
2022/03/14 01:47:18;;;;;;;15.80;6.70;;;;;;;-146.84;100.00;65060.63;5019473;28;20046;-74
2022/03/14 01:49:45;;;;;;;13.98;6.55;;;;;;;-146.84;100.00;65060.63;5030548;28;20083;-79
2022/03/14 01:52:13;;;;;;;14.52;6.60;;;;;;;-146.84;100.00;65060.63;5020790;28;20034;-79
2022/03/14 01:54:40;;;;;;;11.95;6.07;;;;;;;-146.84;100.00;65060.63;5021469;28;20034;-78
2022/03/14 01:57:07;;;;;;;11.60;5.70;;;;;;;-146.84;100.00;65060.63;5020055;28;20037;-77
2022/03/14 01:59:34;;;;;;;12.82;6.40;;;;;;;-146.84;100.00;65060.63;5003108;28;20049;-77
2022/03/14 02:02:26;;;;;;;13.85;6.28;;;;;;;-146.84;100.00;65060.63;5009069;28;20459;-77
2022/03/14 02:04:52;;;;;;;13.20;6.75;;;;;;;-146.84;100.00;65060.63;5021836;28;20030;-78
2022/03/14 02:07:20;;;;;;;14.00;6.53;;;;;;;-146.84;100.00;65060.63;5005828;28;20064;-77
2022/03/14 02:09:45;;;;;;;11.05;6.07;;;;;;;-146.84;100.00;65060.63;5021301;28;20083;-77
2022/03/14 02:12:11;;;;;;;15.60;7.15;;;;;;;-146.84;100.00;65060.63;5003515;28;20042;-77
2022/03/14 02:14:41;;;;;;;14.77;6.68;;;;;;;-146.84;100.00;65060.63;5005090;28;20084;-76
2022/03/14 02:17:08;;;;;;;12.32;5.97;;;;;;;-146.84;100.00;65060.63;5002926;28;20030;-78
2022/03/14 02:19:34;;;;;;;13.10;6.47;;;;;;;-146.84;100.00;65060.63;5026319;28;20042;-78
2022/03/14 02:22:04;;;;;;;14.00;6.07;;;;;;;-146.84;100.00;65060.63;5004099;28;20044;-76
2022/03/14 02:24:29;;;;;;;13.35;6.88;;;;;;;-146.84;100.00;65060.63;5032789;28;20037;-75
2022/03/14 02:26:56;;;;;;;12.75;6.55;;;;;;;-146.84;100.00;65060.63;5004673;28;20052;-76
2022/03/14 02:29:23;;;;;;;15.25;6.90;;;;;;;-146.84;100.00;65060.63;5038893;28;20095;-77
2022/03/14 02:31:51;;;;;;;15.43;7.03;;;;;;;-146.84;100.00;65060.63;5013117;28;20073;-77
2022/03/14 02:34:17;;;;;;;12.77;6.45;;;;;;;-146.84;100.00;65060.63;5016900;28;20037;-77
2022/03/14 02:36:43;;;;;;;12.55;6.38;;;;;;;-146.84;100.00;65060.63;4999618;28;20040;-78
2022/03/14 02:39:08;;;;;;;11.68;5.97;;;;;;;-146.84;100.00;65060.63;5018314;28;20050;-78
2022/03/14 02:41:36;;;;;;;15.35;6.75;;;;;;;-146.84;100.00;65060.63;4984039;28;20080;-75
2022/03/14 02:44:06;;;;;;;13.10;6.40;;;;;;;-146.84;100.00;65060.63;5001524;28;20041;-77
2022/03/14 02:46:38;;;;;;;11.25;6.10;;;;;;;-146.84;100.00;65060.63;5002603;28;20061;-79
2022/03/14 02:49:05;;;;;;;15.40;6.30;;;;;;;-146.84;100.00;65060.63;4991275;28;20093;-75
2022/03/14 02:51:34;;;;;;;13.43;6.63;;;;;;;-146.84;100.00;65060.63;5023126;28;20042;-79
2022/03/14 02:54:04;;;;;;;11.75;6.13;;;;;;;-146.84;100.00;65060.63;5001520;28;20046;-77
2022/03/14 02:56:30;;;;;;;12.02;6.13;;;;;;;-146.84;100.00;65060.63;4975817;28;20038;-76
2022/03/14 02:58:56;;;;;;;15.60;6.93;;;;;;;-146.84;100.00;65060.63;5022471;28;20097;-77
2022/03/14 03:01:21;;;;;;;11.95;6.03;;;;;;;-146.84;100.00;65060.63;5018716;28;20052;-76
2022/03/14 03:03:49;;;;;;;13.48;6.65;;;;;;;-146.84;100.00;65060.63;5000036;28;20522;-77
2022/03/14 03:06:17;;;;;;;15.27;6.30;;;;;;;-146.84;100.00;65060.63;5006668;28;20061;-76
2022/03/14 03:08:44;;;;;;;17.02;6.45;;;;;;;-146.84;100.00;65060.63;5008232;28;20200;-77
2022/03/14 03:11:13;;;;;;;11.73;6.43;;;;;;;-146.84;100.00;65060.63;5002428;28;20034;-78
2022/03/14 03:13:41;;;;;;;14.20;6.68;;;;;;;-146.84;100.00;65060.63;5003053;28;20030;-78
2022/03/14 03:16:10;;;;;;;11.70;6.53;;;;;;;-146.84;100.00;65060.63;4984716;28;20044;-78
2022/03/14 03:18:36;;;;;;;16.20;6.55;;;;;;;-146.84;100.00;65060.63;5001122;28;20030;-79
2022/03/14 03:21:03;;;;;;;13.32;7.10;;;;;;;-146.84;100.00;65060.63;5001388;28;20095;-78
2022/03/14 03:23:29;;;;;;;16.38;6.85;;;;;;;-146.84;100.00;65060.63;5003655;28;20105;-79
2022/03/14 03:25:55;;;;;;;13.75;6.65;;;;;;;-146.84;100.00;65060.63;5000571;28;20036;-78
2022/03/14 03:28:21;;;;;;;13.55;6.85;;;;;;;-146.84;100.00;65060.63;5020760;28;20038;-76
2022/03/14 03:30:47;;;;;;;13.68;6.82;;;;;;;-146.84;100.00;65060.63;5004176;28;20131;-77
2022/03/14 03:33:13;;;;;;;13.82;7.28;;;;;;;-146.84;100.00;65060.63;5012978;28;20476;-78
2022/03/14 03:35:38;;;;;;;14.05;6.93;;;;;;;-146.84;100.00;65060.63;4990110;28;20034;-76
2022/03/14 03:38:04;;;;;;;17.10;7.28;;;;;;;-146.84;100.00;65060.63;5007778;28;20037;-76
2022/03/14 03:40:30;;;;;;;14.65;7.18;;;;;;;-146.84;100.00;65060.63;5024577;28;20044;-78
2022/03/14 03:42:55;;;;;;;12.07;6.95;;;;;;;-146.84;100.00;65060.63;5016993;28;20069;-77
2022/03/14 03:45:21;;;;;;;15.10;7.50;;;;;;;-146.84;100.00;65060.63;5024696;28;20037;-78
2022/03/14 03:47:47;;;;;;;15.18;7.00;;;;;;;-146.84;100.00;65060.63;5000796;28;20096;-77
2022/03/14 03:50:13;;;;;;;13.48;6.82;;;;;;;-146.84;100.00;65060.63;5020137;28;20038;-77
2022/03/14 03:52:38;;;;;;;13.95;7.45;;;;;;;-146.84;100.00;65060.63;4994753;28;20030;-79
2022/03/14 03:55:05;;;;;;;15.43;7.10;;;;;;;-146.84;100.00;65060.63;5011593;28;20114;-75
2022/03/14 03:57:31;;;;;;;13.50;6.95;;;;;;;-146.84;100.00;65060.63;5001895;28;20042;-77
2022/03/14 03:59:57;;;;;;;12.85;6.60;;;;;;;-146.84;100.00;65060.63;4999767;28;20076;-77
2022/03/14 04:02:23;;;;;;;14.27;7.22;;;;;;;-146.84;100.00;65060.63;5034561;28;20041;-79
2022/03/14 04:04:50;;;;;;;15.25;7.38;;;;;;;-146.84;100.00;65060.63;5002112;28;20049;-77
2022/03/14 04:07:23;;;;;;;16.95;7.53;;;;;;;-146.84;100.00;65060.63;5037967;28;20033;-77
2022/03/14 04:09:55;;;;;;;13.73;7.25;;;;;;;-146.84;100.00;65060.63;5007037;28;20030;-76
2022/03/14 04:12:24;;;;;;;14.13;6.88;;;;;;;-146.84;100.00;65060.63;5006340;28;20045;-76
2022/03/14 04:14:51;;;;;;;16.17;7.72;;;;;;;-146.84;100.00;65060.63;5022668;28;20033;-78
2022/03/14 04:17:18;;;;;;;14.80;7.70;;;;;;;-146.84;100.00;65060.63;5021542;28;20030;-78
2022/03/14 04:19:44;;;;;;;13.25;7.00;;;;;;;-146.84;100.00;65060.63;4992937;28;20042;-78
2022/03/14 04:22:12;;;;;;;14.90;7.18;;;;;;;-146.84;100.00;65060.63;5005646;28;20057;-75
2022/03/14 04:24:38;;;;;;;14.25;7.30;;;;;;;-146.84;100.00;65060.63;5024020;28;20034;-79
2022/03/14 04:27:04;;;;;;;16.88;8.27;;;;;;;-146.84;100.00;65060.63;5006768;28;20059;-76
2022/03/14 04:29:30;;;;;;;13.48;7.57;;;;;;;-146.84;100.00;65060.63;5029427;28;20120;-78
2022/03/14 04:31:55;;;;;;;15.25;7.78;;;;;;;-146.84;100.00;65060.63;5021879;28;20115;-77
2022/03/14 04:34:21;;;;;;;15.05;7.07;;;;;;;-146.84;100.00;65060.63;5004680;28;20498;-77
2022/03/14 04:36:50;;;;;;;13.70;7.47;;;;;;;-146.84;100.00;65060.63;5005838;28;20032;-75
2022/03/14 04:39:20;;;;;;;17.58;8.48;;;;;;;-146.84;100.00;65060.63;5016461;28;20089;-77
2022/03/14 04:41:46;;;;;;;17.48;7.90;;;;;;;-146.84;100.00;65060.63;5001801;28;20108;-77
2022/03/14 04:44:12;;;;;;;14.25;7.80;;;;;;;-146.84;100.00;65060.63;5004735;28;20029;-79
2022/03/14 04:46:39;;;;;;;15.70;8.32;;;;;;;-146.84;100.00;65060.63;5001736;28;20511;-77
2022/03/14 04:49:05;;;;;;;19.48;8.27;;;;;;;-146.84;100.00;65060.63;5006614;28;20034;-76
2022/03/14 04:51:32;;;;;;;16.30;8.05;;;;;;;-146.84;100.00;65060.63;5022880;28;20069;-78
2022/03/14 04:53:58;;;;;;;17.27;7.85;;;;;;;-146.84;100.00;65060.63;5012172;28;20056;-78
2022/03/14 04:56:24;;;;;;;14.93;7.63;;;;;;;-146.84;100.00;65060.63;5000030;28;20462;-78
2022/03/14 04:58:50;;;;;;;18.35;8.10;;;;;;;-146.84;100.00;65060.63;5030629;28;20037;-77
2022/03/14 05:01:19;;;;;;;17.13;7.80;;;;;;;-146.84;100.00;65060.63;5004675;28;20042;-74
2022/03/14 05:03:45;;;;;;;15.48;8.07;;;;;;;-146.84;100.00;65060.63;5005464;28;20037;-76
2022/03/14 05:06:10;;;;;;;15.35;8.40;;;;;;;-146.84;100.00;65060.63;5005959;28;20065;-77
2022/03/14 05:08:36;;;;;;;16.58;8.27;;;;;;;-146.84;100.00;65060.63;5008735;28;20037;-76
2022/03/14 05:11:04;;;;;;;20.17;8.38;;;;;;;-146.84;100.00;65060.63;4999385;28;20073;-78
2022/03/14 05:13:30;;;;;;;17.38;8.43;;;;;;;-146.84;100.00;65060.63;5036651;28;20049;-78
2022/03/14 05:15:56;;;;;;;16.95;8.77;;;;;;;-146.84;100.00;65060.63;5022834;28;20041;-78
2022/03/14 05:18:21;;;;;;;19.17;8.57;;;;;;;-146.84;100.00;65060.63;5020922;28;20034;-77
2022/03/14 05:20:47;;;;;;;16.67;8.63;;;;;;;-146.84;100.00;65060.63;5033101;28;20504;-75
2022/03/14 05:23:13;;;;;;;15.45;8.05;;;;;;;-146.84;100.00;65060.63;5017461;28;20843;-78
2022/03/14 05:25:38;;;;;;;21.25;8.68;;;;;;;-146.84;100.00;65060.63;5002894;28;20515;-79
2022/03/14 05:28:03;;;;;;;18.23;8.25;;;;;;;-146.84;100.00;65060.63;5036023;28;20029;-77
2022/03/14 05:30:29;;;;;;;22.85;9.73;;;;;;;-146.84;100.00;65060.63;5003182;28;20041;-76
2022/03/14 05:32:55;;;;;;;19.25;8.88;;;;;;;-146.84;100.00;65060.63;5021543;28;20061;-77
2022/03/14 05:35:21;;;;;;;21.15;8.32;;;;;;;-146.84;100.00;65060.63;5002307;28;20124;-79
2022/03/14 05:37:47;;;;;;;20.55;9.35;;;;;;;-146.84;100.00;65060.63;5002695;28;20069;-79
2022/03/14 05:40:15;;;;;;;22.65;9.30;;;;;;;-146.84;100.00;65060.63;5005223;28;20033;-77
2022/03/14 05:42:43;;;;;;;19.15;9.15;;;;;;;-146.84;100.00;65060.63;5023651;28;20045;-76
2022/03/14 05:45:09;;;;;;;22.17;9.85;;;;;;;-146.84;100.00;65060.63;5003408;28;20038;-77
2022/03/14 05:47:35;;;;;;;17.73;9.30;;;;;;;-146.84;100.00;65060.63;5026389;28;20084;-78
2022/03/14 05:50:01;;;;;;;19.70;9.57;;;;;;;-146.84;100.00;65060.63;5006966;28;20153;-75
2022/03/14 05:52:27;;;;;;;17.63;8.85;;;;;;;-146.84;100.00;65060.63;5014461;28;20058;-76
2022/03/14 05:54:53;;;;;;;19.92;9.40;;;;;;;-146.84;100.00;65060.63;5022528;28;20038;-77
2022/03/14 05:57:18;;;;;;;19.48;9.55;;;;;;;-146.84;100.00;65060.63;5019121;28;20518;-78
2022/03/14 05:59:44;;;;;;;21.63;9.20;;;;;;;-146.84;100.00;65060.63;5003536;28;20044;-78
2022/03/14 06:02:10;;;;;;;21.67;9.55;;;;;;;-146.84;100.00;65060.63;5019391;28;20064;-78
2022/03/14 06:04:39;;;;;;;16.10;8.65;;;;;;;-146.84;100.00;65060.63;5030267;28;20403;-77
2022/03/14 06:07:05;;;;;;;23.35;9.77;;;;;;;-146.84;100.00;65060.63;5018785;28;20171;-78
2022/03/14 06:09:30;;;;;;;18.92;8.93;;;;;;;-146.84;100.00;65060.63;5002991;28;20638;-78
2022/03/14 06:11:56;;;;;;;16.55;9.60;;;;;;;-146.84;100.00;65060.63;4988244;28;20053;-78
2022/03/14 06:14:22;;;;;;;18.65;9.52;;;;;;;-146.84;100.00;65060.63;5018808;28;20041;-76
2022/03/14 06:16:47;;;;;;;18.15;8.95;;;;;;;-146.84;100.00;65060.63;5018921;28;20025;-78
2022/03/14 06:19:14;;;;;;;22.52;9.15;;;;;;;-146.84;100.00;65060.63;5031849;28;20049;-77
2022/03/14 06:21:39;;;;;;;17.95;9.45;;;;;;;-146.84;100.00;65060.63;5004390;28;20069;-76
2022/03/14 06:24:08;;;;;;;19.70;10.30;;;;;;;-146.84;100.00;65060.63;5002947;28;20041;-77
2022/03/14 06:26:34;;;;;;;22.38;10.20;;;;;;;-146.84;100.00;65060.63;4998790;28;20050;-79
2022/03/14 06:29:00;;;;;;;18.65;8.85;;;;;;;-146.84;100.00;65060.63;4998052;28;20037;-76
2022/03/14 06:31:26;;;;;;;20.55;8.98;;;;;;;-146.84;100.00;65060.63;4988420;28;20059;-78
2022/03/14 06:33:52;;;;;;;19.33;9.32;;;;;;;-146.84;100.00;65060.63;5005373;28;20395;-77
2022/03/14 06:36:18;;;;;;;18.20;9.80;;;;;;;-146.84;100.00;65060.63;5017980;28;20038;-78
2022/03/14 06:38:44;;;;;;;15.82;8.45;;;;;;;-146.84;100.00;65060.63;5001213;28;20089;-78
2022/03/14 06:41:11;;;;;;;18.80;9.40;;;;;;;-146.84;100.00;65060.63;5020249;28;20381;-78
2022/03/14 06:43:37;;;;;;;18.25;10.43;;;;;;;-146.84;100.00;65060.63;5015301;28;20044;-76
2022/03/14 06:46:04;;;;;;;17.65;9.95;;;;;;;-146.84;100.00;65060.63;5018922;28;20112;-78
2022/03/14 06:48:30;;;;;;;17.88;9.60;;;;;;;-146.84;100.00;65060.63;5019930;28;20037;-77
2022/03/14 06:50:56;;;;;;;23.42;9.55;;;;;;;-146.84;100.00;65060.63;5014351;28;20041;-78
2022/03/14 06:53:22;;;;;;;19.85;10.25;;;;;;;-146.84;100.00;65060.63;5013194;28;20259;-78
2022/03/14 06:55:47;;;;;;;20.35;9.00;;;;;;;-146.84;100.00;65060.63;5001480;28;20045;-75
2022/03/14 06:58:13;;;;;;;16.73;9.98;;;;;;;-146.84;100.00;65060.63;4984362;28;20498;-78
2022/03/14 07:00:39;;;;;;;22.83;10.20;;;;;;;-146.84;100.00;65060.63;5015365;28;20041;-77
2022/03/14 07:03:05;;;;;;;21.80;9.60;;;;;;;-146.84;100.00;65060.63;4982028;28;20140;-78
2022/03/14 07:05:31;;;;;;;20.08;10.43;;;;;;;-146.84;100.00;65060.63;5001526;28;20054;-77
2022/03/14 07:07:56;;;;;;;20.92;9.75;;;;;;;-146.84;100.00;65060.63;5002010;28;20038;-78
2022/03/14 07:10:23;;;;;;;18.20;8.77;;;;;;;-146.84;100.00;65060.63;5013593;28;20044;-77
2022/03/14 07:12:50;;;;;;;18.40;9.40;;;;;;;-146.84;100.00;65060.63;5015586;28;20483;-75
2022/03/14 07:15:20;;;;;;;19.48;9.77;;;;;;;-146.84;100.00;65060.63;5017783;28;20076;-78
2022/03/14 07:17:49;;;;;;;17.30;8.98;;;;;;;-146.84;100.00;65060.63;5003551;28;20099;-76
2022/03/14 07:20:18;;;;;;;18.98;8.85;;;;;;;-146.84;100.00;65060.63;5018959;28;20045;-77
2022/03/14 07:22:52;;;;;;;19.60;10.30;;;;;;;-146.84;100.00;65060.63;5020997;28;20376;-77
2022/03/14 07:25:19;;;;;;;21.40;9.77;;;;;;;-146.84;100.00;65060.63;5019747;28;20042;-76
2022/03/14 07:27:45;;;;;;;23.58;10.07;;;;;;;-146.84;100.00;65060.63;5003746;28;20047;-77
2022/03/14 07:30:11;;;;;;;20.25;9.93;;;;;;;-146.84;100.00;65060.63;5000773;28;20089;-76
2022/03/14 07:32:36;;;;;;;19.70;9.98;;;;;;;-146.84;100.00;65060.63;5018723;28;20029;-80
2022/03/14 07:35:02;;;;;;;20.67;10.68;;;;;;;-146.84;100.00;65060.63;5000240;28;20076;-74
2022/03/14 07:37:28;;;;;;;22.80;10.05;;;;;;;-146.84;100.00;65060.63;5007976;28;20042;-76
2022/03/14 07:39:54;;;;;;;24.60;10.48;;;;;;;-146.84;100.00;65060.63;5017514;28;20034;-76
2022/03/14 07:42:19;;;;;;;20.05;9.88;;;;;;;-146.84;100.00;65060.63;5002810;28;20041;-77
2022/03/14 07:44:46;;;;;;;20.45;10.43;;;;;;;-146.84;100.00;65060.63;5029416;28;20032;-78
2022/03/14 07:47:13;;;;;;;19.80;9.85;;;;;;;-146.84;100.00;65060.63;5024988;28;20112;-79
2022/03/14 07:49:39;;;;;;;22.42;9.95;;;;;;;-146.84;100.00;65060.63;5025931;28;20038;-79
2022/03/14 07:52:06;;;;;;;17.92;9.98;;;;;;;-146.84;100.00;65060.63;5025853;28;20044;-75
2022/03/14 07:54:32;;;;;;;22.15;10.05;;;;;;;-146.84;100.00;65060.63;5033429;28;20816;-79
2022/03/14 07:56:58;;;;;;;18.95;10.38;;;;;;;-146.84;100.00;65060.63;5025894;28;20037;-79
2022/03/14 07:59:23;;;;;;;22.38;10.15;;;;;;;-146.84;100.00;65060.63;5025652;28;20045;-79
2022/03/14 08:01:49;;;;;;;20.35;9.48;;;;;;;-146.84;100.00;65060.63;5007388;28;20085;-78
2022/03/14 08:04:14;;;;;;;20.90;9.80;;;;;;;-146.84;100.00;65060.63;4993871;28;20101;-75
2022/03/14 08:06:43;;;;;;;20.90;10.25;;;;;;;-146.84;100.00;65060.63;5022635;28;20069;-76
2022/03/14 08:09:09;;;;;;;21.17;10.38;;;;;;;-146.84;100.00;65060.63;5009852;28;20044;-79
2022/03/14 08:11:37;;;;;;;20.20;9.80;;;;;;;-146.84;100.00;65060.63;5027341;28;20069;-76
2022/03/14 08:14:03;;;;;;;22.58;9.90;;;;;;;-146.84;100.00;65060.63;5009783;28;20042;-76
2022/03/14 08:16:29;;;;;;;18.92;9.80;;;;;;;-146.84;100.00;65060.63;5006170;28;20090;-76
2022/03/14 08:18:54;;;;;;;22.48;10.27;;;;;;;-146.84;100.00;65060.63;4989470;28;20046;-76
2022/03/14 08:21:21;;;;;;;19.23;9.75;;;;;;;-146.84;100.00;65060.63;5041628;28;20049;-78
2022/03/14 08:23:47;;;;;;;24.00;10.15;;;;;;;-146.84;100.00;65060.63;5027548;28;20037;-77
2022/03/14 08:26:13;;;;;;;22.83;9.25;;;;;;;-146.84;100.00;65060.63;5014502;28;20124;-77
2022/03/14 08:28:41;;;;;;;18.52;9.85;;;;;;;-146.84;100.00;65060.63;5026291;28;20050;-78
2022/03/14 08:31:06;;;;;;;20.88;9.75;;;;;;;-146.84;100.00;65060.63;5032041;28;20046;-77
2022/03/14 08:33:33;;;;;;;17.60;9.73;;;;;;;-146.84;100.00;65060.63;5017696;28;20060;-77
2022/03/14 08:36:00;;;;;;;21.05;10.57;;;;;;;-146.84;100.00;65060.63;5004983;28;20030;-77
2022/03/14 08:38:26;;;;;;;17.98;10.00;;;;;;;-146.84;100.00;65060.63;5028264;28;20042;-78
2022/03/14 08:40:52;;;;;;;20.58;9.77;;;;;;;-146.84;100.00;65060.63;5009627;28;20176;-78
2022/03/14 08:43:18;;;;;;;19.75;9.93;;;;;;;-146.84;100.00;65060.63;5026282;28;20034;-78
2022/03/14 08:46:04;;;;;;;23.83;9.65;;;;;;;-146.84;100.00;65060.63;5026033;28;20038;-77
2022/03/14 08:48:31;;;;;;;19.80;9.73;;;;;;;-146.84;100.00;65060.63;5006713;28;20044;-78
2022/03/14 08:50:56;;;;;;;20.95;9.63;;;;;;;-146.84;100.00;65060.63;5012472;28;20046;-77
2022/03/14 08:53:22;;;;;;;20.10;10.57;;;;;;;-146.84;100.00;65060.63;4991345;28;20045;-78
2022/03/14 08:55:47;;;;;;;20.55;9.98;;;;;;;-146.84;100.00;65060.63;5016366;28;20034;-78
2022/03/14 08:58:13;;;;;;;21.58;10.15;;;;;;;-146.84;100.00;65060.63;4988467;28;20033;-77
2022/03/14 09:00:39;;;;;;;25.77;11.30;;;;;;;-146.84;100.00;65060.63;4990393;28;20044;-76
2022/03/14 09:03:04;;;;;;;18.63;10.35;;;;;;;-146.84;100.00;65060.63;5006595;28;20666;-77
2022/03/14 09:05:30;;;;;;;18.92;9.60;;;;;;;-146.84;100.00;65060.63;5004752;28;20038;-77
2022/03/14 09:07:56;;;;;;;22.60;9.00;;;;;;;-146.84;100.00;65060.63;5003186;28;20041;-77
2022/03/14 09:10:22;;;;;;;20.38;9.60;;;;;;;-146.84;100.00;65060.63;5018965;28;20038;-76
2022/03/14 09:12:48;;;;;;;24.27;10.18;;;;;;;-146.84;100.00;65060.63;5002192;28;20449;-78
2022/03/14 09:15:15;;;;;;;20.85;10.07;;;;;;;-146.84;100.00;65060.63;5014831;28;20053;-77
2022/03/14 09:17:50;;;;;;;19.13;10.50;;;;;;;-146.84;100.00;65060.63;4987532;28;20040;-77
2022/03/14 09:20:16;;;;;;;18.45;9.25;;;;;;;-146.84;100.00;65060.63;5003898;28;20037;-79
2022/03/14 09:22:46;;;;;;;23.80;9.88;;;;;;;-146.84;100.00;65060.63;5018109;28;20030;-77
2022/03/14 09:25:15;;;;;;;21.13;10.20;;;;;;;-146.84;100.00;65060.63;5018837;28;20803;-78
2022/03/14 09:27:42;;;;;;;16.33;9.48;;;;;;;-146.84;100.00;65060.63;5031030;28;20028;-76
2022/03/14 09:30:11;;;;;;;18.92;8.73;;;;;;;-146.84;100.00;65060.63;4994125;28;20034;-77
2022/03/14 09:32:36;;;;;;;14.85;9.07;;;;;;;-146.84;100.00;65060.63;5011773;28;20808;-76
2022/03/14 09:35:04;;;;;;;20.00;9.10;;;;;;;-146.84;100.00;65060.63;5018596;28;20030;-77
2022/03/14 09:37:30;;;;;;;15.48;9.15;;;;;;;-146.84;100.00;65060.63;4998928;28;20124;-78
2022/03/14 09:39:56;;;;;;;17.50;9.10;;;;;;;-146.84;100.00;65060.63;5034487;28;20053;-79
2022/03/14 09:42:23;;;;;;;15.43;9.30;;;;;;;-146.84;100.00;65060.63;5016195;28;20038;-77
2022/03/14 09:44:54;;;;;;;18.00;8.80;;;;;;;-146.84;100.00;65060.63;5016473;28;20053;-78
2022/03/14 09:47:23;;;;;;;18.23;9.20;;;;;;;-146.84;100.00;65060.63;5019100;28;20503;-77
2022/03/14 09:49:54;;;;;;;19.38;9.63;;;;;;;-146.84;100.00;65060.63;5001112;28;20514;-77
2022/03/14 09:52:21;;;;;;;19.55;8.75;;;;;;;-146.84;100.00;65060.63;5017580;28;20034;-76
2022/03/14 09:54:48;;;;;;;16.98;9.00;;;;;;;-146.84;100.00;65060.63;5001958;28;20068;-78
2022/03/14 09:57:14;;;;;;;19.48;9.07;;;;;;;-146.84;100.00;65060.63;5001951;28;20081;-76
2022/03/14 09:59:41;;;;;;;15.70;8.52;;;;;;;-146.84;100.00;65060.63;5018794;28;20125;-76
2022/03/14 10:02:11;;;;;;;21.85;9.52;;;;;;;-146.84;100.00;65060.63;5001511;28;20063;-76
2022/03/14 10:04:36;;;;;;;14.50;8.68;;;;;;;-146.84;100.00;65060.63;5016191;28;20412;-76
2022/03/14 10:07:02;;;;;;;17.60;9.20;;;;;;;-146.84;100.00;65060.63;5003287;28;20038;-76
2022/03/14 10:09:27;;;;;;;21.25;9.73;;;;;;;-146.84;100.00;65060.63;4998892;28;20167;-77
2022/03/14 10:11:55;;;;;;;18.25;8.95;;;;;;;-146.84;100.00;65060.63;5012437;28;20052;-75
2022/03/14 10:14:22;;;;;;;16.63;9.48;;;;;;;-146.84;100.00;65060.63;5001640;28;20036;-78
2022/03/14 10:16:47;;;;;;;20.50;9.30;;;;;;;-146.84;100.00;65060.63;5016613;28;20113;-75
2022/03/14 10:19:20;;;;;;;17.55;9.82;;;;;;;-146.84;100.00;65060.63;5017118;28;20656;-76
2022/03/14 10:21:46;;;;;;;17.38;9.70;;;;;;;-146.84;100.00;65060.63;5017611;28;20399;-77
2022/03/14 10:24:13;;;;;;;18.17;9.38;;;;;;;-146.84;100.00;65060.63;5018518;28;20041;-78
2022/03/14 10:26:41;;;;;;;17.27;9.48;;;;;;;-146.84;100.00;65060.63;5015833;28;20125;-75
2022/03/14 10:29:12;;;;;;;19.50;10.00;;;;;;;-146.84;100.00;65060.63;5003733;28;20065;-76
2022/03/14 10:31:39;;;;;;;14.68;9.45;;;;;;;-146.84;100.00;65060.63;5012098;28;20091;-75
2022/03/14 10:34:12;;;;;;;15.88;9.00;;;;;;;-146.84;100.00;65060.63;4999679;28;20041;-77
2022/03/14 10:36:47;;;;;;;18.13;9.15;;;;;;;-146.84;100.00;65060.63;5003936;28;20050;-76
2022/03/14 10:39:28;;;;;;;21.27;9.43;;;;;;;-146.84;100.00;65060.63;4983718;28;20494;-77
2022/03/14 10:42:11;;;;;;;18.60;9.23;;;;;;;-146.84;100.00;65060.63;5010645;28;20042;-76
2022/03/14 10:44:37;;;;;;;;;;;;;;;-146.84;100.00;65060.63;4997038;28;20038;-77
2022/03/14 10:47:09;;;;;;;16.45;9.13;;;;;;;-146.84;100.00;65060.63;5010268;28;19960;-76
2022/03/14 10:49:38;;;;;;;16.80;9.60;;;;;;;-146.84;100.00;65060.63;4997310;28;20049;-77
2022/03/14 10:52:06;;;;;;;14.60;8.27;;;;;;;-146.84;100.00;65060.63;4995277;28;20107;-77
2022/03/14 10:54:38;;;;;;;16.40;9.05;;;;;;;-146.84;100.00;65060.63;5016705;28;20038;-75
2022/03/14 10:57:06;;;;;;;14.73;8.30;;;;;;;-146.84;100.00;65060.63;5016615;28;20034;-77
2022/03/14 10:59:36;;;;;;;17.65;8.43;;;;;;;-146.84;100.00;65060.63;5018074;28;20042;-77
2022/03/14 11:02:03;;;;;;;15.30;8.82;;;;;;;-146.84;100.00;65060.63;5000109;28;20038;-75